• Join FlightAware (Why Join?)
  • Login
  • US Flag 
02:34PM EST


 

Airport Tracker/Info


-or-


 

Live Flight TrackerFlight Track Log ✈ N57870 ✈ 08-May-2013 ✈ PHNL - KLAX

Flight Track Log - Related Links

Times and Time Zones

All times are in EDT time to prevent confusion due to time zone crossing. See the N57870 flight status page for this flight to view local times or setup timezone preferences in your user account.

Time Position Orientation Groundspeed Altitude Reporting Facility
EDT Latitude Longitude Course Direction KTS MPH feet Rate Location/Type
12:24PM 21.2260 -157.6320 105° East 300 345 9,200  Level FlightAware
12:25PM 21.1529 -157.2449 105° East  Level FlightAware Approximate
12:25PM 21.2290 -157.5830 86° East 301 346 10,400  Level FlightAware
12:25PM 21.2340 -157.5100 86° East 339 390 11,100 960 Climbing FlightAware
12:26PM 21.2400 -157.4310 85° East 375 432 11,800 900 Climbing FlightAware
12:27PM 21.2470 -157.3210 86° East 391 450 12,600 1,500 Climbing FlightAware
12:28PM 21.2520 -157.2420 86° East 408 470 14,300 2,160 Climbing FlightAware
12:28PM 21.2570 -157.1690 86° East 411 473 15,300 1,020 Climbing FlightAware
12:29PM 21.2630 -157.0860 86° East 420 483 15,700 240 Climbing FlightAware
12:30PM 21.2690 -156.9980 86° East 420 483 15,700  Level FlightAware
12:30PM 21.2730 -156.9270 87° East 420 483 15,700  Level FlightAware
12:31PM 21.2780 -156.8570 86° East 420 483 15,700  Level FlightAware
12:32PM 21.2820 -156.7860 87° East 420 483 15,700  Level FlightAware
12:32PM 21.2870 -156.7150 86° East 420 483 15,700 4,980 Level FlightAware
12:33PM 21.2833 -156.5333 86° East 460 529 21,900 4,740 Climbing Honolulu Center
12:34PM 21.3000 -156.3833 83° East 470 541 23,100 1,020 Climbing Honolulu Center
12:35PM 21.3167 -156.2500 82° East 480 552 24,000 960 Climbing Honolulu Center
12:37PM 21.3333 -155.9500 87° East 500 575 26,100 1,020 Climbing Honolulu Center
12:38PM 21.3333 -155.8000 90° East 500 575 27,100 1,200 Climbing Honolulu Center
12:39PM 21.3500 -155.6500 83° East 500 575 28,600 1,260 Climbing Honolulu Center
12:40PM 21.3500 -155.5167 90° East 500 575 29,700 1,080 Climbing Honolulu Center
12:41PM 21.3667 -155.3667 83° East 490 564 30,800 1,020 Climbing Honolulu Center
12:42PM 21.3667 -155.2167 90° East 490 564 31,800 1,080 Climbing Honolulu Center
12:43PM 21.3833 -155.0833 82° East 490 564 33,000 540 Climbing Honolulu Center
12:44PM 21.3833 -154.9333 90° East 490 564 33,000  Level Honolulu Center
12:45PM 21.4000 -154.7833 83° East 490 564 33,000  Level Honolulu Center
12:46PM 21.4000 -154.6333 90° East 490 564 33,000  Level Honolulu Center
12:47PM 21.4167 -154.5000 82° East 480 552 33,000  Level Honolulu Center
12:48PM 21.4167 -154.3500 90° East 480 552 33,000  Level Honolulu Center
12:49PM 21.4167 -154.2000 90° East 480 552 33,000  Level Honolulu Center
12:50PM 21.4333 -154.0500 83° East 470 541 33,000  Level Honolulu Center
12:51PM 21.4500 -153.9167 82° East 470 541 33,000  Level Honolulu Center
12:52PM 21.4500 -153.7667 90° East 480 552 33,000  Level Honolulu Center
12:53PM 21.4500 -153.6167 90° East 490 564 33,000  Level Honolulu Center
12:54PM 21.4667 -153.4667 83° East 490 564 33,000  Level Honolulu Center
12:55PM 21.4667 -153.3167 90° East 490 564 33,000  Level Honolulu Center
12:56PM 21.4833 -153.1833 82° East 490 564 33,000  Level Honolulu Center
12:58PM 21.4922 -152.9810 87° East  Level FlightAware Approximate
01:05PM 21.5318 -152.0040 87° East  Level FlightAware Approximate
01:06PM 21.5370 -151.8643 88° East  Level FlightAware Approximate
01:07PM 21.5421 -151.7247 88° East  Level FlightAware Approximate
01:08PM 21.5470 -151.5851 88° East  Level FlightAware Approximate
01:09PM 21.5500 -151.4453 90° East  Level FlightAware Approximate
01:10PM 21.6038 -151.3194 63° Northeast  Level FlightAware Approximate
01:11PM 21.6626 -151.1947 63° Northeast  Level FlightAware Approximate
01:11PM 21.5500 -151.4667 63° Northeast 486 559 33,000  Level Oakland Oceanic (ODAPS)
01:12PM 21.7213 -151.0699 63° Northeast  Level FlightAware Approximate
01:13PM 21.7799 -150.9449 63° Northeast  Level FlightAware Approximate
01:14PM 21.8384 -150.8199 63° Northeast  Level FlightAware Approximate
01:15PM 21.8967 -150.6949 63° Northeast  Level FlightAware Approximate
01:16PM 21.9550 -150.5699 63° Northeast  Level FlightAware Approximate
01:17PM 22.0959 -150.2963 64° Northeast 486 559 33,000  Level FlightAware Transoceanic
01:18PM 22.1561 -150.1657 64° Northeast 486 559 33,000  Level FlightAware Transoceanic
01:19PM 22.2161 -150.0350 64° Northeast 486 559 33,000  Level FlightAware Transoceanic
01:20PM 22.2761 -149.9042 64° Northeast 486 559 33,000  Level FlightAware Transoceanic
01:21PM 22.3359 -149.7733 64° Northeast 486 559 33,000  Level FlightAware Transoceanic
01:22PM 22.3956 -149.6422 64° Northeast 486 559 33,000  Level FlightAware Transoceanic
01:23PM 22.4553 -149.5111 64° Northeast 486 559 33,000  Level FlightAware Transoceanic
01:24PM 22.5148 -149.3798 64° Northeast 486 559 33,000  Level FlightAware Transoceanic
01:25PM 22.5742 -149.2484 64° Northeast 486 559 33,000  Level FlightAware Transoceanic
01:26PM 22.6335 -149.1169 64° Northeast 486 559 33,000  Level FlightAware Transoceanic
01:27PM 22.6927 -148.9853 64° Northeast 486 559 33,000  Level FlightAware Transoceanic
01:28PM 22.7518 -148.8536 64° Northeast 486 559 33,000  Level FlightAware Transoceanic
01:29PM 22.8107 -148.7218 64° Northeast 486 559 33,000  Level FlightAware Transoceanic
01:30PM 22.8696 -148.5898 64° Northeast 486 559 33,000  Level FlightAware Transoceanic
01:31PM 22.9284 -148.4577 64° Northeast 486 559 33,000  Level FlightAware Transoceanic
01:32PM 22.9870 -148.3256 64° Northeast 486 559 33,000  Level FlightAware Transoceanic
01:33PM 23.0456 -148.1933 64° Northeast 486 559 33,000  Level FlightAware Transoceanic
01:34PM 23.1040 -148.0609 64° Northeast 486 559 33,000  Level FlightAware Transoceanic
01:35PM 23.1623 -147.9283 64° Northeast 486 559 33,000  Level FlightAware Transoceanic
01:36PM 23.2206 -147.7957 65° Northeast 486 559 33,000  Level FlightAware Transoceanic
01:37PM 23.2787 -147.6630 65° Northeast 486 559 33,000  Level FlightAware Transoceanic
01:38PM 23.3367 -147.5301 65° Northeast 486 559 33,000  Level FlightAware Transoceanic
01:39PM 23.3945 -147.3971 65° Northeast 486 559 33,000  Level FlightAware Transoceanic
01:40PM 23.4523 -147.2640 65° Northeast 486 559 33,000  Level FlightAware Transoceanic
01:41PM 23.5099 -147.1308 65° Northeast 486 559 33,000  Level FlightAware Transoceanic
01:42PM 23.5675 -146.9975 65° Northeast 486 559 33,000  Level FlightAware Transoceanic
01:43PM 23.6249 -146.8640 65° Northeast 486 559 33,000  Level FlightAware Transoceanic
01:44PM 23.6822 -146.7304 65° Northeast 486 559 33,000  Level FlightAware Transoceanic
01:45PM 23.7394 -146.5968 65° Northeast 486 559 33,000  Level FlightAware Transoceanic
01:46PM 23.7965 -146.4630 65° Northeast 486 559 33,000  Level FlightAware Transoceanic
01:47PM 23.8535 -146.3290 65° Northeast 486 559 33,000  Level FlightAware Transoceanic
01:48PM 23.9103 -146.1950 65° Northeast 486 559 33,000  Level FlightAware Transoceanic
01:49PM 23.9670 -146.0608 65° Northeast 486 559 33,000  Level FlightAware Transoceanic
01:50PM 24.0237 -145.9266 65° Northeast 486 559 33,000  Level FlightAware Transoceanic
01:51PM 24.0802 -145.7922 65° Northeast 486 559 33,000  Level FlightAware Transoceanic
01:52PM 24.1365 -145.6577 65° Northeast 486 559 33,000  Level FlightAware Transoceanic
01:53PM 24.1928 -145.5230 65° Northeast 486 559 33,000  Level FlightAware Transoceanic
01:54PM 24.2489 -145.3883 65° Northeast 486 559 33,000  Level FlightAware Transoceanic
01:55PM 24.3050 -145.2534 66° East 486 559 33,000  Level FlightAware Transoceanic
01:56PM 24.3609 -145.1184 66° East 486 559 33,000  Level FlightAware Transoceanic
01:57PM 24.4167 -144.9833 66° East 486 559 33,000  Level FlightAware Transoceanic
01:58PM 24.4736 -144.8450 66° East 486 559 33,000  Level FlightAware Transoceanic
01:58PM 24.4167 -144.9833 66° East 487 560 33,000  Level Oakland Oceanic (ODAPS)
01:59PM 24.5304 -144.7065 66° East 486 559 33,000  Level FlightAware Transoceanic
02:00PM 24.5871 -144.5680 66° East 486 559 33,000  Level FlightAware Transoceanic
02:01PM 24.6437 -144.4292 66° East 486 559 33,000  Level FlightAware Transoceanic
02:02PM 24.7001 -144.2904 66° East 486 559 33,000  Level FlightAware Transoceanic
02:03PM 24.7564 -144.1515 66° East 486 559 33,000  Level FlightAware Transoceanic
02:04PM 24.8595 -143.8959 66° East 487 560 33,000  Level FlightAware Transoceanic
02:05PM 24.9143 -143.7594 66° East 487 560 33,000  Level FlightAware Transoceanic
02:06PM 24.9690 -143.6228 66° East 487 560 33,000  Level FlightAware Transoceanic
02:07PM 25.0236 -143.4861 66° East 487 560 33,000  Level FlightAware Transoceanic
02:08PM 25.0780 -143.3493 66° East 487 560 33,000  Level FlightAware Transoceanic
02:09PM 25.1323 -143.2123 66° East 487 560 33,000  Level FlightAware Transoceanic
02:10PM 25.1865 -143.0752 66° East 487 560 33,000  Level FlightAware Transoceanic
02:11PM 25.2405 -142.9380 66° East 487 560 33,000  Level FlightAware Transoceanic
02:12PM 25.2944 -142.8007 67° East 487 560 33,000  Level FlightAware Transoceanic
02:13PM 25.3482 -142.6633 67° East 487 560 33,000  Level FlightAware Transoceanic
02:14PM 25.4019 -142.5257 67° East 487 560 33,000  Level FlightAware Transoceanic
02:15PM 25.4554 -142.3880 67° East 487 560 33,000  Level FlightAware Transoceanic
02:16PM 25.5089 -142.2502 67° East 487 560 33,000  Level FlightAware Transoceanic
02:17PM 25.5621 -142.1123 67° East 487 560 33,000  Level FlightAware Transoceanic
02:18PM 25.6153 -141.9742 67° East 487 560 33,000  Level FlightAware Transoceanic
02:19PM 25.6683 -141.8360 67° East 487 560 33,000  Level FlightAware Transoceanic
02:20PM 25.7212 -141.6977 67° East 487 560 33,000  Level FlightAware Transoceanic
02:21PM 25.7740 -141.5593 67° East 487 560 33,000  Level FlightAware Transoceanic
02:22PM 25.8266 -141.4207 67° East 487 560 33,000  Level FlightAware Transoceanic
02:23PM 25.8791 -141.2821 67° East 487 560 33,000  Level FlightAware Transoceanic
02:24PM 25.9315 -141.1433 67° East 487 560 33,000  Level FlightAware Transoceanic
02:25PM 25.9837 -141.0044 67° East 487 560 33,000  Level FlightAware Transoceanic
02:26PM 26.0358 -140.8653 67° East 487 560 33,000  Level FlightAware Transoceanic
02:27PM 26.0878 -140.7262 67° East 487 560 33,000  Level FlightAware Transoceanic
02:28PM 26.1396 -140.5869 68° East 487 560 33,000  Level FlightAware Transoceanic
02:29PM 26.1913 -140.4475 68° East 487 560 33,000  Level FlightAware Transoceanic
02:30PM 26.2429 -140.3079 68° East 487 560 33,000  Level FlightAware Transoceanic
02:31PM 26.2943 -140.1683 68° East 487 560 33,000  Level FlightAware Transoceanic
02:32PM 26.3456 -140.0285 68° East 487 560 33,000  Level FlightAware Transoceanic
02:33PM 26.3968 -139.8886 68° East 487 560 33,000  Level FlightAware Transoceanic
02:34PM 26.4478 -139.7485 68° East 487 560 33,000  Level FlightAware Transoceanic
02:35PM 26.4987 -139.6084 68° East 487 560 33,000  Level FlightAware Transoceanic
02:36PM 26.5495 -139.4681 68° East 487 560 33,000  Level FlightAware Transoceanic
02:37PM 26.6001 -139.3277 68° East 487 560 33,000  Level FlightAware Transoceanic
02:38PM 26.6506 -139.1872 68° East 487 560 33,000  Level FlightAware Transoceanic
02:39PM 26.7009 -139.0465 68° East 487 560 33,000  Level FlightAware Transoceanic
02:40PM 26.7511 -138.9057 68° East 487 560 33,000  Level FlightAware Transoceanic
02:41PM 26.8011 -138.7648 68° East 487 560 33,000  Level FlightAware Transoceanic
02:42PM 26.8511 -138.6238 68° East 487 560 33,000  Level FlightAware Transoceanic
02:43PM 26.9009 -138.4827 68° East 487 560 33,000  Level FlightAware Transoceanic
02:44PM 26.9505 -138.3414 69° East 487 560 33,000  Level FlightAware Transoceanic
02:45PM 27.0000 -138.2000 69° East 487 560 33,000  Level FlightAware Transoceanic
02:46PM 27.0489 -138.0593 69° East 487 560 33,000  Level FlightAware Transoceanic
02:47PM 27.0977 -137.9185 69° East 487 560 33,000  Level FlightAware Transoceanic
02:47PM 27.0000 -138.2000 69° East 485 558 33,000  Level Oakland Oceanic (ODAPS)
02:48PM 27.1464 -137.7776 69° East 487 560 33,000  Level FlightAware Transoceanic
02:49PM 27.1949 -137.6366 69° East 487 560 33,000  Level FlightAware Transoceanic
02:50PM 27.2432 -137.4954 69° East 487 560 33,000  Level FlightAware Transoceanic
02:51PM 27.2915 -137.3541 69° East 487 560 33,000  Level FlightAware Transoceanic
02:52PM 27.3395 -137.2127 69° East 487 560 33,000  Level FlightAware Transoceanic
02:53PM 27.3875 -137.0712 69° East 487 560 33,000  Level FlightAware Transoceanic
02:54PM 27.4353 -136.9295 69° East 485 558 33,000  Level FlightAware Transoceanic
02:55PM 27.4829 -136.7877 69° East 485 558 33,000  Level FlightAware Transoceanic
02:56PM 27.5304 -136.6458 69° East 485 558 33,000  Level FlightAware Transoceanic
02:57PM 27.5778 -136.5038 69° East 485 558 33,000  Level FlightAware Transoceanic
02:58PM 27.6250 -136.3617 69° East 485 558 33,000  Level FlightAware Transoceanic
02:59PM 27.6721 -136.2194 70° East 485 558 33,000  Level FlightAware Transoceanic
03:00PM 27.7190 -136.0770 70° East 485 558 33,000  Level FlightAware Transoceanic
03:01PM 27.7658 -135.9345 70° East 485 558 33,000  Level FlightAware Transoceanic
03:02PM 27.8124 -135.7919 70° East 485 558 33,000  Level FlightAware Transoceanic
03:03PM 27.8589 -135.6491 70° East 485 558 33,000  Level FlightAware Transoceanic
03:04PM 27.9053 -135.5062 70° East 485 558 33,000  Level FlightAware Transoceanic
03:05PM 27.9515 -135.3632 70° East 485 558 33,000  Level FlightAware Transoceanic
03:06PM 27.9975 -135.2201 70° East 485 558 33,000  Level FlightAware Transoceanic
03:07PM 28.0434 -135.0768 70° East 485 558 33,000  Level FlightAware Transoceanic
03:08PM 28.0891 -134.9335 70° East 485 558 33,000  Level FlightAware Transoceanic
03:09PM 28.1347 -134.7900 70° East 485 558 33,000  Level FlightAware Transoceanic
03:10PM 28.1802 -134.6464 70° East 485 558 33,000  Level FlightAware Transoceanic
03:11PM 28.2255 -134.5026 70° East 485 558 33,000  Level FlightAware Transoceanic
03:12PM 28.2707 -134.3588 70° East 485 558 33,000  Level FlightAware Transoceanic
03:13PM 28.3157 -134.2148 70° East 485 558 33,000  Level FlightAware Transoceanic
03:14PM 28.3605 -134.0707 71° East 485 558 33,000  Level FlightAware Transoceanic
03:15PM 28.4052 -133.9265 71° East 485 558 33,000  Level FlightAware Transoceanic
03:16PM 28.4497 -133.7821 71° East 485 558 33,000  Level FlightAware Transoceanic
03:17PM 28.4941 -133.6377 71° East 485 558 33,000  Level FlightAware Transoceanic
03:18PM 28.5384 -133.4931 71° East 485 558 33,000  Level FlightAware Transoceanic
03:19PM 28.5825 -133.3484 71° East 485 558 33,000  Level FlightAware Transoceanic
03:20PM 28.6264 -133.2036 71° East 485 558 33,000  Level FlightAware Transoceanic
03:21PM 28.6702 -133.0586 71° East 485 558 33,000  Level FlightAware Transoceanic
03:22PM 28.7138 -132.9135 71° East 485 558 33,000  Level FlightAware Transoceanic
03:23PM 28.7573 -132.7683 71° East 485 558 33,000  Level FlightAware Transoceanic
03:24PM 28.8006 -132.6230 71° East 485 558 33,000  Level FlightAware Transoceanic
03:25PM 28.8437 -132.4776 71° East 485 558 33,000  Level FlightAware Transoceanic
03:26PM 28.8867 -132.3320 71° East 485 558 33,000  Level FlightAware Transoceanic
03:27PM 28.9296 -132.1864 71° East 485 558 33,000  Level FlightAware Transoceanic
03:28PM 28.9723 -132.0406 72° East 485 558 33,000  Level FlightAware Transoceanic
03:29PM 29.0148 -131.8947 72° East 485 558 33,000  Level FlightAware Transoceanic
03:30PM 29.0572 -131.7486 72° East 485 558 33,000  Level FlightAware Transoceanic
03:31PM 29.0994 -131.6025 72° East 485 558 33,000  Level FlightAware Transoceanic
03:32PM 29.1415 -131.4562 72° East 485 558 33,000  Level FlightAware Transoceanic
03:33PM 29.1833 -131.3098 72° East 485 558 33,000  Level FlightAware Transoceanic
03:34PM 29.2251 -131.1633 72° East 485 558 33,000  Level FlightAware Transoceanic
03:35PM 29.2667 -131.0167 72° East 485 558 33,000  Level FlightAware Transoceanic
03:36PM 29.3081 -130.8702 72° East 485 558 33,000  Level FlightAware Transoceanic
03:37PM 29.3493 -130.7235 72° East 485 558 33,000  Level FlightAware Transoceanic
03:38PM 29.3904 -130.5768 72° East 485 558 33,000  Level FlightAware Transoceanic
03:39PM 29.4313 -130.4299 72° East 485 558 33,000 1,380 Level FlightAware Transoceanic
03:39PM 29.2667 -131.0167 72° East 466 536 35,000  Climbing Oakland Oceanic (ODAPS)
03:40PM 29.4721 -130.2829 72° East 485 558 33,000 -1,260 Descending FlightAware Transoceanic
03:41PM 29.5127 -130.1358 72° East 485 558 33,000  Level FlightAware Transoceanic
03:42PM 29.5532 -129.9886 73° East 485 558 33,000  Level FlightAware Transoceanic
03:43PM 29.5934 -129.8413 73° East 485 558 33,000  Level FlightAware Transoceanic
03:44PM 29.6335 -129.6938 73° East 485 558 33,000 960 Level FlightAware Transoceanic
03:45PM 29.6197 -129.7449 73° East 466 536 35,000 960 Climbing FlightAware Transoceanic
03:46PM 29.6581 -129.6030 73° East 466 536 35,000  Level FlightAware Transoceanic
03:47PM 29.6965 -129.4611 73° East 466 536 35,000  Level FlightAware Transoceanic
03:48PM 29.7346 -129.3190 73° East 466 536 35,000  Level FlightAware Transoceanic
03:49PM 29.7727 -129.1768 73° East 466 536 35,000  Level FlightAware Transoceanic
03:50PM 29.8105 -129.0345 73° East 466 536 35,000  Level FlightAware Transoceanic
03:51PM 29.8482 -128.8922 73° East 466 536 35,000  Level FlightAware Transoceanic
03:52PM 29.8858 -128.7496 73° East 466 536 35,000  Level FlightAware Transoceanic
03:53PM 29.9232 -128.6070 73° East 466 536 35,000  Level FlightAware Transoceanic
03:54PM 29.9605 -128.4643 73° East 466 536 35,000  Level FlightAware Transoceanic
03:55PM 29.9976 -128.3215 73° East 466 536 35,000  Level FlightAware Transoceanic
03:56PM 30.0345 -128.1786 73° East 466 536 35,000  Level FlightAware Transoceanic
03:57PM 30.0713 -128.0355 73° East 466 536 35,000  Level FlightAware Transoceanic
03:58PM 30.1080 -127.8924 74° East 466 536 35,000  Level FlightAware Transoceanic
03:59PM 30.1444 -127.7492 74° East 466 536 35,000  Level FlightAware Transoceanic
04:00PM 30.1807 -127.6058 74° East 466 536 35,000  Level FlightAware Transoceanic
04:01PM 30.2169 -127.4623 74° East 466 536 35,000  Level FlightAware Transoceanic
04:02PM 30.2529 -127.3188 74° East 466 536 35,000  Level FlightAware Transoceanic
04:03PM 30.2888 -127.1751 74° East 466 536 35,000  Level FlightAware Transoceanic
04:04PM 30.3245 -127.0313 74° East 466 536 35,000  Level FlightAware Transoceanic
04:05PM 30.3600 -126.8875 74° East 466 536 35,000  Level FlightAware Transoceanic
04:06PM 30.3954 -126.7435 74° East 466 536 35,000  Level FlightAware Transoceanic
04:07PM 30.4307 -126.5994 74° East 466 536 35,000  Level FlightAware Transoceanic
04:08PM 30.4657 -126.4552 74° East 466 536 35,000  Level FlightAware Transoceanic
04:09PM 30.5006 -126.3109 74° East 466 536 35,000  Level FlightAware Transoceanic
04:10PM 30.5354 -126.1665 74° East 466 536 35,000  Level FlightAware Transoceanic
04:11PM 30.5700 -126.0220 75° East 466 536 35,000  Level FlightAware Transoceanic
04:12PM 30.6044 -125.8774 75° East 466 536 35,000  Level FlightAware Transoceanic
04:13PM 30.6387 -125.7327 75° East 466 536 35,000  Level FlightAware Transoceanic
04:14PM 30.6728 -125.5879 75° East 466 536 35,000  Level FlightAware Transoceanic
04:15PM 30.7067 -125.4430 75° East 466 536 35,000  Level FlightAware Transoceanic
04:16PM 30.7405 -125.2980 75° East 466 536 35,000  Level FlightAware Transoceanic
04:17PM 30.7742 -125.1529 75° East 466 536 35,000  Level FlightAware Transoceanic
04:18PM 30.8076 -125.0077 75° East 466 536 35,000  Level FlightAware Transoceanic
04:19PM 30.8409 -124.8623 75° East 466 536 35,000  Level FlightAware Transoceanic
04:20PM 30.8741 -124.7169 75° East 466 536 35,000  Level FlightAware Transoceanic
04:21PM 30.9070 -124.5714 75° East 466 536 35,000  Level FlightAware Transoceanic
04:22PM 30.9399 -124.4258 75° East 466 536 35,000  Level FlightAware Transoceanic
04:23PM 30.9725 -124.2801 75° East 466 536 35,000  Level FlightAware Transoceanic
04:24PM 31.0050 -124.1342 75° East 466 536 35,000  Level FlightAware Transoceanic
04:25PM 31.0373 -123.9883 76° East 466 536 35,000  Level FlightAware Transoceanic
04:26PM 31.0695 -123.8423 76° East 466 536 35,000  Level FlightAware Transoceanic
04:27PM 31.1015 -123.6962 76° East 466 536 35,000  Level FlightAware Transoceanic
04:28PM 31.1333 -123.5500 77° East 466 536 35,000  Level FlightAware Transoceanic
04:29PM 31.1643 -123.3971 77° East 466 536 35,000  Level FlightAware Transoceanic
04:30PM 31.1950 -123.2440 77° East 466 536 35,000  Level FlightAware Transoceanic
04:30PM 31.1783 -123.2561 77° East 511 588 35,000  Level Los Angeles Center
04:31PM 31.2256 -123.0909 77° East 466 536 35,000  Level FlightAware Transoceanic
04:31PM 31.2103 -123.1144 75° East 459 528 35,000  Level Los Angeles Center
04:32PM 31.2560 -122.9377 77° East 466 536 35,000  Level FlightAware Transoceanic
04:32PM 31.2389 -122.9628 78° East 467 537 35,000  Level Los Angeles Center
04:33PM 31.2862 -122.7843 77° East 466 536 35,000  Level FlightAware Transoceanic
04:33PM 31.2697 -122.8178 76° East 467 537 35,000  Level Los Angeles Center
04:34PM 31.3163 -122.6309 77° East 466 536 35,000  Level FlightAware Transoceanic
04:34PM 31.3053 -122.6417 77° East 467 537 35,000  Level Los Angeles Center
04:35PM 31.3461 -122.4774 77° East 466 536 35,000  Level FlightAware Transoceanic
04:35PM 31.3347 -122.4956 77° East 465 535 35,000  Level Los Angeles Center
04:36PM 31.3647 -122.3503 76° East 464 534 35,000  Level Los Angeles Center
04:37PM 31.3931 -122.2031 77° East 464 534 35,000  Level Los Angeles Center
04:38PM 31.4219 -122.0578 77° East 464 534 35,000  Level Los Angeles Center
04:39PM 31.4575 -121.8861 76° East 460 529 35,000  Level Los Angeles Center
04:40PM 31.4869 -121.7425 76° East 457 526 35,000  Level Los Angeles Center
04:41PM 31.5206 -121.5672 77° East 459 528 35,000  Level Los Angeles Center
04:42PM 31.5489 -121.4236 77° East 459 528 35,000  Level Los Angeles Center
04:44PM 31.5896 -121.2749 67° East  Level FlightAware Approximate
04:44PM 31.5936 -121.2953 67° East 449 517 35,000  Level Los Angeles Center
04:45PM 31.6411 -121.1547 68° East 455 524 35,000  Level Los Angeles Center
04:46PM 31.7075 -120.9603 68° East 462 532 35,000  Level Los Angeles Center
04:47PM 31.7558 -120.8192 68° East 465 535 35,000  Level Los Angeles Center
04:48PM 31.8036 -120.6806 68° East 462 532 35,000  Level Los Angeles Center
04:50PM 31.8986 -120.3997 68° East 464 534 35,000  Level Los Angeles Center
04:51PM 31.9689 -120.2372 63° Northeast 474 545 35,000  Level Los Angeles Center
04:52PM 32.0547 -120.1314 46° Northeast 456 525 35,000  Level Los Angeles Center
04:53PM 32.1583 -119.9975 48° Northeast 458 527 35,000 -120 Level Los Angeles Center
04:54PM 32.2517 -119.8753 48° Northeast 460 529 34,800 -1,320 Descending Los Angeles Center
04:55PM 32.3403 -119.7653 46° Northeast 462 532 32,300 -2,220 Descending Los Angeles Center
04:56PM 32.4097 -119.6758 47° Northeast 462 532 30,300 -2,040 Descending Los Angeles Center
04:57PM 32.5114 -119.5456 47° Northeast 450 518 28,100 -2,160 Descending Los Angeles Center
04:58PM 32.6083 -119.4203 47° Northeast 432 497 25,900 -1,920 Descending Los Angeles Center
04:59PM 32.6875 -119.3197 47° Northeast 420 483 24,100 -1,740 Descending Los Angeles Center
05:00PM 32.7636 -119.2200 48° Northeast 410 472 22,300 -1,740 Descending Los Angeles Center
05:02PM 32.8372 -119.1244 47° Northeast 396 456 20,500 -1,500 Descending Los Angeles Center
05:07PM 33.2100 -118.6370 47° Northeast 11,900 -1,500 Descending FlightAware
05:07PM 33.2630 -118.5680 47° Northeast 342 394 11,900  Level FlightAware
05:08PM 33.3150 -118.5000 48° Northeast 346 398 11,900 -120 Level FlightAware
05:09PM 33.3600 -118.4380 49° Northeast 348 400 11,800  Descending FlightAware
05:09PM 33.3800 -118.3860 65° Northeast 349 402 11,900 60 Climbing FlightAware
05:10PM 33.3910 -118.3110 80° East 348 400 11,900  Level FlightAware
05:11PM 33.4040 -118.2220 80° East 348 400 11,900  Level FlightAware
05:11PM 33.4180 -118.1490 77° East 330 380 11,900 -480 Level FlightAware
05:12PM 33.4460 -118.1090 50° Northeast 313 360 11,400 -1,140 Descending FlightAware
05:13PM 33.4920 -118.0700 35° Northeast 302 348 10,600 -1,200 Descending FlightAware
05:13PM 33.5380 -118.0330 34° Northeast 291 335 9,800 -1,320 Descending FlightAware
05:14PM 33.5730 -118.0090 30° Northeast 286 329 9,100 -1,380 Descending FlightAware
05:14PM 33.5910 -118.0030 16° North 283 326 8,800 -1,020 Descending FlightAware
05:14PM 33.6120 -118.0040 358° North 272 313 8,600 -900 Descending FlightAware
05:15PM 33.6400 -118.0070 355° North 258 297 8,200 -900 Descending FlightAware
05:15PM 33.6590 -118.0120 348° North 249 287 8,000 -960 Descending FlightAware
05:15PM 33.6910 -118.0220 345° North 240 276 7,500 -780 Descending FlightAware
05:16PM 33.7170 -118.0320 342° North 244 281 7,300 -480 Descending FlightAware
05:16PM 33.7510 -118.0440 344° North 250 288 7,100 -420 Descending FlightAware
05:17PM 33.7660 -118.0490 345° North 248 285 7,000 -300 Descending FlightAware
05:17PM 33.7930 -118.0580 345° North 242 278 6,900 -480 Descending FlightAware
05:18PM 33.8260 -118.0720 341° North 241 277 6,600 -1,140 Descending FlightAware
05:18PM 33.8590 -118.0850 342° North 244 281 5,800 -1,440 Descending FlightAware
05:18PM 33.8860 -118.0950 343° North 243 280 5,300 -1,200 Descending FlightAware
05:19PM 33.9170 -118.1120 336° Northwest 238 274 4,700 -1,080 Descending FlightAware
05:19PM 33.9300 -118.1230 325° Northwest 231 266 4,500 -780 Descending FlightAware
05:20PM 33.9460 -118.1460 310° West 217 250 4,200 -660 Descending FlightAware
05:20PM 33.9570 -118.1780 293° West 192 221 3,900 -900 Descending FlightAware
05:21PM 33.9540 -118.2180 265° West 173 199 3,200 -1,020 Descending FlightAware
05:21PM 33.9530 -118.2300 264° West 163 188 3,000 -1,080 Descending FlightAware
05:22PM 33.9500 -118.2550 262° West 142 163 2,400 -1,020 Descending FlightAware
05:22PM 33.9500 -118.2630 270° West 145 167 2,100 -960 Descending FlightAware
05:22PM 33.9470 -118.2870 261° West 144 166 1,600 -1,080 Descending FlightAware
05:23PM 33.9450 -118.3030 261° West 141 162 1,300 -720 Descending FlightAware
05:23PM 33.9430 -118.3240 263° West 136 157 900 -420 Descending FlightAware
05:24PM 33.9420 -118.3420 266° West 136 157 900 -480 Level FlightAware
05:25PM 33.9367 -118.4042 266° West 141 162 200 -660 Descending Los Angeles Center